createdAt,value
2024-04-16T00:01:03.256Z,51.95
2024-04-16T00:05:03.540Z,44.67
2024-04-16T00:09:03.441Z,47.98
2024-04-16T00:13:03.544Z,43.17
2024-04-16T00:17:03.642Z,53.17
2024-04-16T00:21:03.759Z,41.84
2024-04-16T00:25:03.972Z,43.48
2024-04-16T00:29:04.000Z,43.33
2024-04-16T00:33:04.015Z,48.94
2024-04-16T00:37:04.213Z,50.82
2024-04-16T00:41:04.306Z,47.18
2024-04-16T00:45:04.442Z,49.06
2024-04-16T00:49:04.632Z,44.67
2024-04-16T00:53:04.659Z,43.29
2024-04-16T00:57:04.805Z,43.63
2024-04-16T01:01:04.985Z,48.42
2024-04-16T01:05:05.008Z,47.47
2024-04-16T01:09:05.113Z,44.86
2024-04-16T01:13:05.269Z,44.35
2024-04-16T01:17:05.337Z,41.88
2024-04-16T01:21:05.412Z,42.49
2024-04-16T01:25:05.598Z,42.33
2024-04-16T01:29:05.671Z,42.79
2024-04-16T01:33:05.858Z,49.03
2024-04-16T01:37:05.950Z,45.68
2024-04-16T01:41:05.986Z,49.45
2024-04-16T01:45:06.093Z,47.26
2024-04-16T01:49:06.260Z,39.33
2024-04-16T01:53:06.372Z,47.26
2024-04-16T01:57:06.480Z,44.17
2024-04-16T02:01:06.694Z,40.58
2024-04-16T02:05:06.726Z,41.51
2024-04-16T02:09:06.796Z,43
2024-04-16T02:13:06.926Z,41.51
2024-04-16T02:17:07.031Z,40.16
2024-04-16T02:21:07.168Z,40.04
2024-04-16T02:25:07.259Z,39.96
2024-04-16T02:29:07.375Z,38.96
2024-04-16T02:33:07.510Z,39.53
2024-04-16T02:37:07.631Z,42.45
2024-04-16T02:41:07.714Z,40.19
2024-04-16T02:45:07.805Z,38.95
2024-04-16T02:49:07.938Z,39.65
2024-04-16T02:53:08.029Z,39.67
2024-04-16T02:57:08.160Z,40.89
2024-04-16T03:01:08.408Z,42.67
2024-04-16T03:05:08.387Z,40.27
2024-04-16T03:09:08.481Z,40.69
2024-04-16T03:13:08.638Z,41.29
2024-04-16T03:17:08.764Z,41.93
2024-04-16T03:21:08.840Z,42.88
2024-04-16T03:25:08.991Z,43.2
2024-04-16T03:29:09.029Z,45.46
2024-04-16T03:33:09.328Z,42.94
2024-04-16T03:37:09.334Z,43.94
2024-04-16T03:41:09.374Z,44.69
2024-04-16T03:45:09.514Z,44.53
2024-04-16T03:49:09.695Z,47.37
2024-04-16T03:53:09.709Z,53.89
2024-04-16T03:57:09.841Z,53.24
2024-04-16T04:01:10.013Z,49.55
2024-04-16T04:05:10.134Z,51.77
2024-04-16T04:09:10.222Z,54.35
2024-04-16T04:13:10.304Z,54.59
2024-04-16T04:17:10.424Z,47.12
2024-04-16T04:21:10.540Z,50.82
2024-04-16T04:25:10.681Z,48
2024-04-16T04:29:10.757Z,47.96
2024-04-16T04:33:10.878Z,48.31
2024-04-16T04:37:11.026Z,47.22
2024-04-16T04:41:11.112Z,47.85
2024-04-16T04:45:11.218Z,47.29
2024-04-16T04:49:11.360Z,46.8
2024-04-16T04:53:11.457Z,48.58
2024-04-16T04:57:11.536Z,46.69
2024-04-16T05:01:11.756Z,45.74
2024-04-16T05:05:11.786Z,48.06
2024-04-16T05:09:11.905Z,47.11
2024-04-16T05:13:12.048Z,47.08
2024-04-16T05:17:12.084Z,53.08
2024-04-16T05:21:12.219Z,49.41
2024-04-16T05:25:12.369Z,47.62
2024-04-16T05:29:12.471Z,46.55
2024-04-16T05:33:12.620Z,51.26
2024-04-16T05:37:12.688Z,47.37
2024-04-16T05:41:12.819Z,53.06
2024-04-16T05:45:12.899Z,60.59
2024-04-16T05:49:13.078Z,48
2024-04-16T05:53:13.201Z,53.29
2024-04-16T05:57:13.257Z,51.56
2024-04-16T06:01:13.494Z,58.01
2024-04-16T06:05:13.479Z,54.35
2024-04-16T06:09:13.598Z,47.4
2024-04-16T06:13:13.777Z,52.7
2024-04-16T06:17:13.826Z,49.35
2024-04-16T06:21:13.929Z,49.21
2024-04-16T06:25:14.073Z,46.67
2024-04-16T06:29:14.139Z,49.81
2024-04-16T06:33:14.306Z,51.79
2024-04-16T06:37:14.447Z,48.31
2024-04-16T06:41:14.498Z,49.79
2024-04-16T06:45:14.596Z,53.27
2024-04-16T06:49:18.721Z,48.23
2024-04-16T06:53:14.820Z,48.56
2024-04-16T06:57:14.955Z,54.12
2024-04-16T07:01:15.087Z,58.76
2024-04-16T07:05:15.165Z,65
2024-04-16T07:09:15.300Z,56.96
2024-04-16T07:13:17.835Z,52.67
2024-04-16T07:17:15.504Z,48.92
2024-04-16T07:21:15.616Z,46.78
2024-04-16T07:25:15.818Z,48.67
2024-04-16T07:29:15.832Z,54
2024-04-16T07:33:16.165Z,55.56
2024-04-16T07:37:16.100Z,46.39
2024-04-16T07:41:16.200Z,58.35
2024-04-16T07:45:16.262Z,61.33
2024-04-16T07:49:16.447Z,59.24
2024-04-16T07:53:16.526Z,46.67
2024-04-16T07:57:16.644Z,58
2024-04-16T08:01:16.849Z,53.64
2024-04-16T08:05:16.892Z,50.61
2024-04-16T08:09:16.957Z,51.03
2024-04-16T08:13:17.107Z,52.7
2024-04-16T08:17:17.291Z,53.53
2024-04-16T08:21:17.519Z,49.58
2024-04-16T08:25:17.474Z,49.41
2024-04-16T08:29:17.531Z,50.69
2024-04-16T08:33:20.521Z,52.49
2024-04-16T08:37:17.864Z,48.71
2024-04-16T08:41:17.905Z,50.67
2024-04-16T08:45:18.063Z,62.71
2024-04-16T08:49:18.180Z,58.26
2024-04-16T08:53:18.203Z,60.35
2024-04-16T08:57:18.347Z,59.92
2024-04-16T09:01:18.546Z,51.12
2024-04-16T09:05:18.626Z,48.82
2024-04-16T09:09:18.703Z,48.45
2024-04-16T09:13:18.859Z,46.87
2024-04-16T09:17:19.021Z,48.17
2024-04-16T09:21:19.009Z,60.69
2024-04-16T09:25:19.221Z,60.78
2024-04-16T09:29:19.271Z,59.36
2024-04-16T09:33:24.828Z,58.35
2024-04-16T09:37:19.486Z,61.33
2024-04-16T09:41:19.587Z,63.35
2024-04-16T09:45:19.701Z,62.26
2024-04-16T09:49:19.817Z,61.38
2024-04-16T09:53:19.944Z,68.17
2024-04-16T09:57:20.037Z,55.56
2024-04-16T10:01:20.354Z,58.73
2024-04-16T10:05:20.316Z,57.94
2024-04-16T10:09:20.402Z,64
2024-04-16T10:13:20.543Z,63.17
2024-04-16T10:17:20.672Z,63.16
2024-04-16T10:21:20.784Z,67.45
2024-04-16T10:25:21.839Z,61.78
2024-04-16T10:29:20.928Z,74.14
2024-04-16T10:33:21.134Z,54.35
2024-04-16T10:37:21.155Z,49.92
2024-04-16T10:41:21.286Z,49.96
2024-04-16T10:45:21.396Z,53.42
2024-04-16T10:49:21.520Z,55.29
2024-04-16T10:53:21.648Z,51.23
2024-04-16T10:57:21.782Z,53.45
2024-04-16T11:01:21.846Z,52.67
2024-04-16T11:05:21.969Z,52.53
2024-04-16T11:09:22.074Z,52.71
2024-04-16T11:13:22.229Z,51.06
2024-04-16T11:17:22.334Z,55.34
2024-04-16T11:21:22.407Z,53.65
2024-04-16T11:25:22.540Z,52.59
2024-04-16T11:29:22.628Z,47.98
2024-04-16T11:33:26.595Z,49.06
2024-04-16T11:33:37.079Z,49.06
2024-04-16T11:37:22.901Z,47.62
2024-04-16T11:41:23.094Z,45.42
2024-04-16T11:45:23.084Z,44.69
2024-04-16T11:49:23.254Z,47.82
2024-04-16T11:53:23.368Z,46.2
2024-04-16T11:57:23.428Z,47.78
2024-04-16T12:01:23.696Z,45.04
2024-04-16T12:05:23.804Z,48.23
2024-04-16T12:09:23.765Z,49.6
2024-04-16T12:13:23.953Z,51.14
2024-04-16T12:17:24.050Z,46.31
2024-04-16T12:21:24.160Z,47.52
2024-04-16T12:25:24.238Z,42.65
2024-04-16T12:29:24.363Z,45.72
2024-04-16T12:33:24.529Z,48.35
2024-04-16T12:37:24.647Z,44.67
2024-04-16T12:41:24.983Z,45
2024-04-16T12:45:24.845Z,46.54
2024-04-16T12:49:24.990Z,50.69
2024-04-16T12:53:25.004Z,48.35
2024-04-16T12:57:25.194Z,53.19
2024-04-16T13:01:25.287Z,49.79
2024-04-16T13:05:25.401Z,43.94
2024-04-16T13:09:25.470Z,44.39
2024-04-16T13:13:25.606Z,45.67
2024-04-16T13:17:25.781Z,49.25
2024-04-16T13:21:25.827Z,46.55
2024-04-16T13:25:25.979Z,47.2
2024-04-16T13:29:26.020Z,44.7
2024-04-16T13:33:26.181Z,44.86
2024-04-16T13:37:26.298Z,48.33
2024-04-16T13:41:26.391Z,48.11
2024-04-16T13:45:26.549Z,48.67
2024-04-16T13:49:26.698Z,46.88
2024-04-16T13:53:26.717Z,47.11
2024-04-16T13:57:26.836Z,45.8
2024-04-16T14:01:27.042Z,62.4
2024-04-16T14:05:27.088Z,75.13
2024-04-16T14:09:27.215Z,65.65
2024-04-16T14:13:27.348Z,52.9
2024-04-16T14:17:27.398Z,54.67
2024-04-16T14:21:27.540Z,53.65
2024-04-16T14:25:27.714Z,49
2024-04-16T14:29:27.760Z,46.78
2024-04-16T14:33:28.031Z,48.71
2024-04-16T14:37:28.052Z,43.41
2024-04-16T14:41:28.087Z,46.42
2024-04-16T14:45:28.226Z,46.94
2024-04-16T14:49:28.476Z,46.74
2024-04-16T14:53:28.461Z,45.37
2024-04-16T14:57:28.509Z,48.38
2024-04-16T15:01:28.670Z,45.84
2024-04-16T15:05:28.787Z,45.07
2024-04-16T15:09:28.880Z,44.41
2024-04-16T15:13:29.016Z,45.27
2024-04-16T15:17:29.151Z,45.9
2024-04-16T15:21:29.201Z,43.37
2024-04-16T15:25:29.374Z,42.92
2024-04-16T15:29:29.454Z,44.61
2024-04-16T15:33:29.656Z,43.24
2024-04-16T15:37:29.750Z,45.23
2024-04-16T15:41:32.360Z,46.4
2024-04-16T15:45:29.899Z,44.92
2024-04-16T15:49:30.053Z,48.88
2024-04-16T15:53:30.149Z,47.15
2024-04-16T15:57:30.252Z,46.88
2024-04-16T16:01:30.404Z,57.56
2024-04-16T16:05:30.499Z,49.53
2024-04-16T16:09:30.577Z,56.25
2024-04-16T16:13:30.757Z,47.2
2024-04-16T16:17:30.948Z,53.05
2024-04-16T16:21:30.923Z,52.35
2024-04-16T16:25:31.080Z,42.35
2024-04-16T16:29:31.183Z,41.79
2024-04-16T16:33:31.291Z,44.71
2024-04-16T16:37:31.418Z,41.8
2024-04-16T16:41:31.520Z,42.58
2024-04-16T16:45:31.581Z,46.59
2024-04-16T16:49:31.744Z,46.59
2024-04-16T16:53:31.822Z,43.84
2024-04-16T16:57:31.950Z,42.45
2024-04-16T17:01:32.182Z,43.42
2024-04-16T17:05:32.274Z,43.76
2024-04-16T17:09:32.332Z,46.59
2024-04-16T17:13:32.366Z,48.64
2024-04-16T17:17:32.614Z,45.81
2024-04-16T17:21:32.648Z,49.47
2024-04-16T17:25:32.723Z,54.54
2024-04-16T17:29:32.834Z,48.46
2024-04-16T17:33:32.991Z,44.1
2024-04-16T17:37:33.180Z,41.87
2024-04-16T17:41:33.210Z,40.66
2024-04-16T17:45:33.359Z,44.01
2024-04-16T17:49:33.452Z,46.75
2024-04-16T17:53:33.532Z,42.08
2024-04-16T17:57:33.632Z,40.55
2024-04-16T18:01:33.827Z,41.86
2024-04-16T18:05:35.154Z,45.04
2024-04-16T18:09:33.964Z,49.15
2024-04-16T18:13:34.163Z,40.33
2024-04-16T18:17:34.400Z,41.91
2024-04-16T18:21:34.331Z,40.94
2024-04-16T18:25:34.512Z,39.87
2024-04-16T18:29:34.545Z,39.58
2024-04-16T18:33:34.752Z,40.41
2024-04-16T18:37:34.799Z,39.04
2024-04-16T18:41:34.900Z,39.25
2024-04-16T18:45:35.022Z,40.38
2024-04-16T18:49:35.188Z,44.95
2024-04-16T18:53:35.232Z,42.92
2024-04-16T18:57:35.330Z,39.33
2024-04-16T19:01:35.456Z,39.41
2024-04-16T19:05:35.588Z,39.95
2024-04-16T19:09:35.693Z,38.67
2024-04-16T19:13:35.806Z,38.34
2024-04-16T19:17:35.950Z,38.67
2024-04-16T19:21:36.011Z,38.89
2024-04-16T19:25:36.200Z,39.76
2024-04-16T19:29:36.264Z,38.75
2024-04-16T19:33:36.390Z,39.6
2024-04-16T19:37:36.462Z,38.43
2024-04-16T19:41:36.568Z,39.76
2024-04-16T19:45:36.704Z,38.2
2024-04-16T19:49:36.898Z,37.41
2024-04-16T19:53:36.971Z,38.79
2024-04-16T19:57:37.035Z,40.91
2024-04-16T20:01:37.204Z,37.98
2024-04-16T20:05:37.265Z,38.29
2024-04-16T20:09:37.401Z,39.08
2024-04-16T20:13:37.517Z,39.35
2024-04-16T20:17:37.635Z,38.82
2024-04-16T20:21:37.680Z,38.36
2024-04-16T20:25:37.857Z,39.86
2024-04-16T20:29:37.932Z,40.52
2024-04-16T20:33:38.085Z,38.59
2024-04-16T20:37:38.208Z,38.22
2024-04-16T20:41:38.266Z,38.87
2024-04-16T20:45:38.412Z,42.82
2024-04-16T20:49:38.544Z,38.75
2024-04-16T20:53:38.647Z,39.25
2024-04-16T20:57:38.760Z,38.7
2024-04-16T21:01:38.857Z,38.42
2024-04-16T21:05:38.970Z,38.31
2024-04-16T21:09:39.071Z,39.51
2024-04-16T21:13:39.225Z,38.36
2024-04-16T21:17:39.425Z,37.87
2024-04-16T21:21:39.379Z,39.26
2024-04-16T21:25:39.515Z,37.88
2024-04-16T21:29:39.658Z,38.82
2024-04-16T21:33:39.761Z,38.98
2024-04-16T21:37:39.904Z,37.71
2024-04-16T21:41:39.993Z,37.93
2024-04-16T21:45:40.112Z,39.96
2024-04-16T21:49:40.219Z,37.27
2024-04-16T21:53:40.327Z,38.87
2024-04-16T21:57:40.435Z,39.15
2024-04-16T22:01:40.567Z,37.11
2024-04-16T22:05:40.656Z,37.33
2024-04-16T22:09:40.772Z,38.21
2024-04-16T22:13:40.903Z,37.55
2024-04-16T22:17:41.046Z,37.98
2024-04-16T22:21:41.136Z,37.32
2024-04-16T22:25:41.260Z,38.9
2024-04-16T22:29:41.311Z,37.2
2024-04-16T22:33:41.475Z,36.64
2024-04-16T22:37:41.680Z,37.27
2024-04-16T22:41:41.675Z,37.01
2024-04-16T22:45:41.795Z,38.31
2024-04-16T22:49:41.925Z,36.24
2024-04-16T22:53:42.002Z,38.82
2024-04-16T22:57:42.116Z,38.95
2024-04-16T23:01:42.267Z,37.07
2024-04-16T23:05:42.413Z,37.84
2024-04-16T23:09:42.452Z,36.3
2024-04-16T23:13:42.606Z,36.79
2024-04-16T23:17:42.730Z,37.8
2024-04-16T23:21:42.807Z,37.31
2024-04-16T23:25:42.978Z,36.56
2024-04-16T23:29:43.056Z,36.6
2024-04-16T23:33:43.111Z,36.24
2024-04-16T23:37:43.309Z,36.85
2024-04-16T23:41:43.398Z,36
2024-04-16T23:45:43.504Z,36.24
2024-04-16T23:49:43.644Z,36.14
2024-04-16T23:53:43.673Z,36.47
2024-04-16T23:57:43.825Z,36.39
